createdAt,value
2018-06-09T00:35:48.518Z,34.85
2018-06-09T00:38:16.214Z,4.90
2018-06-09T00:40:44.058Z,32.40
2018-06-09T00:43:11.523Z,92.27
2018-06-09T00:45:38.966Z,255.98
2018-06-09T00:48:06.391Z,162.43
2018-06-09T00:50:34.155Z,11.50
2018-06-09T00:53:01.578Z,147.37
2018-06-09T00:55:29.038Z,4.77
2018-06-09T00:57:56.486Z,23.00
2018-06-09T01:00:23.938Z,4.70
2018-06-09T01:02:51.394Z,15.00
2018-06-09T01:05:18.837Z,4.97
2018-06-09T01:07:46.286Z,5.57
2018-06-09T01:10:13.731Z,142.93
2018-06-09T01:12:42.790Z,22.80
2018-06-09T01:15:10.588Z,17.23
2018-06-09T01:17:40.096Z,10.97
2018-06-09T01:20:07.586Z,7.10
2018-06-09T01:22:35.006Z,92.07
2018-06-09T01:25:02.482Z,134.20
2018-06-09T01:27:29.949Z,9.00
2018-06-09T01:29:57.457Z,70.40
2018-06-09T01:32:24.886Z,248.03
2018-06-09T01:34:52.306Z,4.23
2018-06-09T01:37:19.782Z,4.20
2018-06-09T01:39:47.222Z,157.83
2018-06-09T01:42:14.994Z,244.62
2018-06-09T01:44:42.705Z,6.83
2018-06-09T01:47:10.126Z,4.83
2018-06-09T01:49:37.611Z,4.50
2018-06-09T01:52:05.050Z,4.50
2018-06-09T01:54:32.527Z,7.33
2018-06-09T01:56:59.954Z,5.40
2018-06-09T01:59:27.454Z,5.33
2018-06-09T02:01:54.910Z,5.80
2018-06-09T02:04:22.406Z,5.17
2018-06-09T02:06:49.922Z,34.73
2018-06-09T02:09:17.348Z,5.43
2018-06-09T02:11:44.848Z,15.87
2018-06-09T02:14:12.339Z,5.30
2018-06-09T02:16:39.768Z,12.07
2018-06-09T02:19:07.238Z,5.27
2018-06-09T02:21:34.683Z,5.20
2018-06-09T02:24:02.153Z,8.13
2018-06-09T02:26:29.578Z,140.43
2018-06-09T02:28:57.063Z,16.17
2018-06-09T02:31:24.491Z,63.00
2018-06-09T02:33:51.930Z,134.77
2018-06-09T02:36:19.391Z,157.13
2018-06-09T02:38:46.862Z,124.53
2018-06-09T02:41:14.302Z,37.50
2018-06-09T02:43:41.787Z,11.17
2018-06-09T02:46:09.244Z,8.80
2018-06-09T02:48:36.672Z,5.60
2018-06-09T02:51:04.159Z,11.13
2018-06-09T02:53:31.654Z,5.60
2018-06-09T02:55:59.125Z,5.10
2018-06-09T02:58:26.546Z,5.80
2018-06-09T03:00:54.018Z,7.73
2018-06-09T03:03:21.482Z,5.23
2018-06-09T03:05:48.988Z,4.47
2018-06-09T03:08:16.444Z,5.47
2018-06-09T03:10:43.923Z,4.50
2018-06-09T03:13:11.390Z,7.13
2018-06-09T03:15:38.881Z,60.27
2018-06-09T03:18:06.371Z,70.80
2018-06-09T03:20:33.806Z,116.17
2018-06-09T03:23:01.278Z,107.70
2018-06-09T03:25:28.713Z,173.07
2018-06-09T03:27:56.193Z,232.77
2018-06-09T03:30:23.633Z,18.82
2018-06-09T03:32:51.106Z,57.03
2018-06-09T03:35:18.539Z,61.33
2018-06-09T03:37:46.021Z,224.47
2018-06-09T03:40:13.446Z,210.53
2018-06-09T03:42:40.927Z,145.30
2018-06-09T03:45:08.346Z,67.40
2018-06-09T03:47:35.836Z,179.43
2018-06-09T03:50:03.271Z,103.03
2018-06-09T03:52:30.710Z,4.93
2018-06-09T03:54:58.190Z,5.57
2018-06-09T03:57:25.642Z,17.90
2018-06-09T03:59:53.106Z,6.67
2018-06-09T04:02:20.710Z,5.30
2018-06-09T04:04:48.181Z,10.70
2018-06-09T04:07:15.634Z,11.20
2018-06-09T04:09:43.102Z,5.97
2018-06-09T04:12:10.523Z,5.70
2018-06-09T04:14:37.994Z,5.43
2018-06-09T04:17:05.415Z,12.90
2018-06-09T04:19:32.907Z,46.00
2018-06-09T04:22:00.322Z,40.50
2018-06-09T04:24:27.771Z,165.70
2018-06-09T04:26:55.253Z,169.23
2018-06-09T04:29:22.703Z,69.67
2018-06-09T04:31:50.162Z,6.70
2018-06-09T04:34:17.581Z,21.03
2018-06-09T04:36:45.107Z,11.00
2018-06-09T04:39:12.531Z,59.33
2018-06-09T04:41:40.234Z,27.57
2018-06-09T04:44:07.658Z,13.70
2018-06-09T04:46:35.443Z,130.57
2018-06-09T04:49:02.866Z,22.00
2018-06-09T04:51:30.702Z,186.83
2018-06-09T04:53:58.143Z,201.20
2018-06-09T04:56:25.610Z,32.73
2018-06-09T04:58:53.082Z,30.77
2018-06-09T05:01:20.503Z,74.27
2018-06-09T05:03:47.971Z,96.97
2018-06-09T05:06:15.514Z,118.27
2018-06-09T05:08:42.974Z,99.27
2018-06-09T05:11:10.443Z,6.60
2018-06-09T05:13:37.862Z,77.97
2018-06-09T05:16:05.335Z,192.87
2018-06-09T05:18:32.771Z,313.70
2018-06-09T05:21:00.247Z,271.43
2018-06-09T05:23:27.678Z,14.30
2018-06-09T05:25:55.143Z,7.27
2018-06-09T05:28:22.562Z,77.97
2018-06-09T05:30:50.022Z,8.03
2018-06-09T05:33:17.479Z,24.33
2018-06-09T05:35:44.946Z,185.20
2018-06-09T05:38:12.642Z,192.40
2018-06-09T05:40:40.294Z,149.87
2018-06-09T05:43:07.751Z,236.23
2018-06-09T05:45:35.174Z,321.83
2018-06-09T05:48:02.623Z,101.00
2018-06-09T05:50:30.052Z,249.03
2018-06-09T05:52:57.497Z,155.90
2018-06-09T05:55:24.926Z,147.63
2018-06-09T05:57:52.397Z,80.43
2018-06-09T06:00:19.831Z,111.20
2018-06-09T06:02:47.388Z,169.70
2018-06-09T06:05:15.150Z,83.00
2018-06-09T06:07:42.571Z,237.63
2018-06-09T06:10:10.036Z,208.17
2018-06-09T06:12:37.466Z,321.57
2018-06-09T06:15:04.995Z,375.23
2018-06-09T06:17:32.413Z,481.03
2018-06-09T06:19:59.859Z,521.30
2018-06-09T06:22:27.265Z,540.17
2018-06-09T06:24:54.719Z,575.23
2018-06-09T06:27:22.151Z,48.03
2018-06-09T06:29:49.589Z,359.33
2018-06-09T06:32:17.509Z,296.00
2018-06-09T06:34:44.926Z,416.70
2018-06-09T06:37:12.342Z,569.03
2018-06-09T06:39:39.794Z,555.40
2018-06-09T06:42:07.218Z,999.90
2018-06-09T06:44:34.691Z,999.90
2018-06-09T06:47:02.126Z,999.90
2018-06-09T06:49:29.591Z,999.90
2018-06-09T06:51:57.022Z,999.90
2018-06-09T06:54:24.470Z,999.90
2018-06-09T06:56:51.899Z,833.33
2018-06-09T06:59:19.364Z,999.90
2018-06-09T07:01:46.854Z,999.90
2018-06-09T07:04:14.411Z,999.90
2018-06-09T07:06:41.855Z,999.90
2018-06-09T07:09:09.322Z,999.90
2018-06-09T07:11:36.747Z,804.83
2018-06-09T07:14:04.223Z,999.90
2018-06-09T07:16:31.757Z,999.90
2018-06-09T07:18:59.458Z,999.90
2018-06-09T07:21:26.886Z,999.90
2018-06-09T07:23:54.346Z,878.13
2018-06-09T07:26:21.794Z,999.90
2018-06-09T07:28:49.593Z,999.90
2018-06-09T07:31:17.034Z,999.90
2018-06-09T07:33:44.495Z,999.90
2018-06-09T07:36:12.424Z,913.73
2018-06-09T07:38:39.913Z,999.90
2018-06-09T07:41:07.591Z,891.77
2018-06-09T07:43:35.057Z,999.90
2018-06-09T07:46:02.493Z,999.90
2018-06-09T07:48:29.975Z,999.90
2018-06-09T07:50:57.398Z,999.90
2018-06-09T07:53:24.825Z,798.53
2018-06-09T07:55:52.374Z,999.90
2018-06-09T07:58:19.874Z,999.90
2018-06-09T08:00:47.365Z,999.90
2018-06-09T08:03:14.814Z,891.03
2018-06-09T08:05:42.271Z,999.90
2018-06-09T08:08:09.903Z,999.90
2018-06-09T08:10:37.335Z,999.90
2018-06-09T08:13:04.779Z,821.17
2018-06-09T08:15:32.261Z,999.90
2018-06-09T08:17:59.722Z,999.90
2018-06-09T08:20:27.194Z,999.90
2018-06-09T08:22:54.638Z,999.90
2018-06-09T08:25:22.094Z,999.90
2018-06-09T08:27:49.542Z,999.90
2018-06-09T08:30:17.023Z,999.90
2018-06-09T08:32:44.762Z,999.90
2018-06-09T08:35:12.234Z,999.90
2018-06-09T08:37:40.111Z,999.90
2018-06-09T08:40:07.582Z,999.90
2018-06-09T08:42:35.024Z,999.90
2018-06-09T08:45:02.506Z,999.90
2018-06-09T08:47:30.265Z,999.90
2018-06-09T08:49:57.731Z,999.90
2018-06-09T08:52:25.214Z,999.90
2018-06-09T08:54:52.661Z,999.90
2018-06-09T08:57:20.117Z,858.30
2018-06-09T08:59:47.561Z,999.90
2018-06-09T09:02:15.068Z,999.90
2018-06-09T09:04:42.502Z,893.83
2018-06-09T09:07:09.972Z,999.90
2018-06-09T09:09:37.562Z,999.90
2018-06-09T09:12:05.859Z,906.97
2018-06-09T09:14:33.358Z,999.90
2018-06-09T09:17:00.855Z,926.40
2018-06-09T09:19:28.339Z,999.90
2018-06-09T09:21:55.814Z,999.90
2018-06-09T09:24:23.550Z,999.90
2018-06-09T09:26:51.063Z,934.77
2018-06-09T09:29:20.170Z,999.90
2018-06-09T09:31:48.897Z,999.90
2018-06-09T09:34:16.383Z,959.00
2018-06-09T09:36:43.823Z,999.90
2018-06-09T09:39:11.275Z,999.90
2018-06-09T09:41:38.709Z,989.67
2018-06-09T09:44:06.190Z,999.90
2018-06-09T09:46:33.614Z,999.90
2018-06-09T09:49:01.096Z,999.90
2018-06-09T09:51:28.522Z,999.90
2018-06-09T09:53:56.170Z,999.90
2018-06-09T09:56:23.614Z,999.90
2018-06-09T09:58:51.410Z,999.90
2018-06-09T10:01:18.866Z,999.90
2018-06-09T10:03:46.314Z,999.90
2018-06-09T10:06:14.032Z,999.90
2018-06-09T10:08:41.500Z,999.90
2018-06-09T10:11:08.922Z,999.90
2018-06-09T10:13:36.370Z,999.90
2018-06-09T10:16:03.906Z,999.90
2018-06-09T10:18:31.394Z,999.90
2018-06-09T10:20:58.830Z,999.90
2018-06-09T10:23:26.275Z,999.90
2018-06-09T10:25:53.689Z,999.90
2018-06-09T10:28:21.168Z,999.90
2018-06-09T10:30:48.599Z,999.90
2018-06-09T10:33:16.033Z,959.23
2018-06-09T10:35:43.471Z,999.90
2018-06-09T10:38:10.982Z,999.90
2018-06-09T10:40:38.429Z,996.73
2018-06-09T10:43:05.883Z,999.90
2018-06-09T10:45:33.335Z,999.90
2018-06-09T10:48:00.822Z,999.35
2018-06-09T10:50:28.299Z,999.90
2018-06-09T10:52:55.720Z,999.90
2018-06-09T10:55:23.178Z,999.90
2018-06-09T10:57:50.644Z,999.90
2018-06-09T11:00:18.090Z,999.90
2018-06-09T11:02:45.506Z,999.90
2018-06-09T11:05:12.957Z,999.90
2018-06-09T11:07:40.384Z,999.90
2018-06-09T11:10:07.942Z,999.90
2018-06-09T11:12:35.327Z,999.90
2018-06-09T11:15:02.774Z,999.90
2018-06-09T11:17:30.196Z,999.90
2018-06-09T11:19:57.654Z,999.90
2018-06-09T11:22:25.082Z,999.90
2018-06-09T11:24:52.526Z,999.90
2018-06-09T11:27:19.953Z,999.90
2018-06-09T11:29:47.405Z,999.90
2018-06-09T11:32:14.857Z,999.90
2018-06-09T11:34:42.322Z,999.90
2018-06-09T11:37:09.730Z,999.90
2018-06-09T11:39:37.186Z,999.90
2018-06-09T11:42:05.985Z,999.90
2018-06-09T11:44:33.447Z,999.90
2018-06-09T11:47:01.283Z,999.90
2018-06-09T11:49:28.706Z,999.90
2018-06-09T11:51:56.166Z,999.90
2018-06-09T11:54:23.593Z,999.90
2018-06-09T11:56:51.101Z,999.90
2018-06-09T11:59:18.570Z,999.90
2018-06-09T12:01:46.091Z,999.90
2018-06-09T12:04:13.498Z,999.90
2018-06-09T12:06:41.214Z,999.90
2018-06-09T12:09:08.686Z,999.90
2018-06-09T12:11:36.711Z,999.90
2018-06-09T12:14:04.178Z,952.73
2018-06-09T12:16:31.673Z,999.90
2018-06-09T12:18:59.091Z,999.90
2018-06-09T12:21:26.591Z,825.87
2018-06-09T12:23:54.043Z,999.90
2018-06-09T12:26:21.508Z,999.90
2018-06-09T12:28:48.954Z,999.90
2018-06-09T12:31:16.397Z,999.90
2018-06-09T12:33:43.824Z,999.90
2018-06-09T12:36:11.276Z,999.90
2018-06-09T12:38:38.710Z,999.90
2018-06-09T12:41:06.178Z,999.90
2018-06-09T12:43:34.143Z,999.90
2018-06-09T12:46:01.585Z,999.90
2018-06-09T12:48:29.172Z,999.90
2018-06-09T12:50:56.534Z,999.90
2018-06-09T12:53:24.002Z,999.90
2018-06-09T12:55:51.462Z,999.90
2018-06-09T12:58:18.927Z,999.90
2018-06-09T13:00:46.363Z,999.90
2018-06-09T13:03:13.822Z,999.90
2018-06-09T13:05:41.255Z,999.90
2018-06-09T13:08:08.709Z,999.90
2018-06-09T13:10:36.182Z,999.90
2018-06-09T13:13:03.633Z,999.90
2018-06-09T13:15:31.075Z,999.90
2018-06-09T13:17:58.538Z,999.90
2018-06-09T13:20:25.989Z,999.90
2018-06-09T13:22:53.761Z,999.90
2018-06-09T13:25:21.191Z,999.90
2018-06-09T13:27:48.647Z,999.90
2018-06-09T13:30:16.181Z,999.90
2018-06-09T13:32:43.596Z,999.90
2018-06-09T13:35:11.022Z,999.90
2018-06-09T13:37:38.490Z,999.90
2018-06-09T13:40:06.118Z,999.90
2018-06-09T13:42:33.639Z,999.90
2018-06-09T13:45:01.075Z,999.90
2018-06-09T13:47:28.818Z,999.90
2018-06-09T13:49:56.274Z,999.90
2018-06-09T13:52:24.019Z,999.90
2018-06-09T13:54:51.483Z,999.90
2018-06-09T13:57:18.934Z,999.90
2018-06-09T13:59:46.496Z,999.90
2018-06-09T14:02:14.150Z,999.90
2018-06-09T14:04:41.598Z,999.90
2018-06-09T14:07:09.039Z,999.90
2018-06-09T14:09:36.537Z,999.90
2018-06-09T14:12:03.989Z,999.90
2018-06-09T14:14:31.434Z,999.90
2018-06-09T14:16:58.854Z,999.90
2018-06-09T14:19:26.310Z,999.90
2018-06-09T14:21:53.750Z,999.90
2018-06-09T14:24:21.241Z,999.90
2018-06-09T14:26:48.693Z,999.90
2018-06-09T14:29:16.159Z,999.90
2018-06-09T14:31:43.614Z,999.90
2018-06-09T14:34:11.361Z,999.90
2018-06-09T14:36:38.798Z,999.90
2018-06-09T14:39:06.999Z,999.90
2018-06-09T14:41:34.466Z,999.90
2018-06-09T14:44:01.927Z,999.90
2018-06-09T14:46:29.366Z,999.90
2018-06-09T14:48:57.206Z,999.90
2018-06-09T14:51:24.934Z,999.90
2018-06-09T14:53:52.454Z,999.90
2018-06-09T14:56:19.856Z,999.90
2018-06-09T14:58:47.341Z,999.90
2018-06-09T15:01:14.783Z,999.90
2018-06-09T15:03:42.231Z,999.90
2018-06-09T15:06:09.707Z,999.90
2018-06-09T15:08:37.449Z,999.90
2018-06-09T15:11:04.942Z,999.90
2018-06-09T15:13:32.659Z,999.90
2018-06-09T15:16:00.139Z,999.90
2018-06-09T15:18:27.557Z,999.90
2018-06-09T15:20:55.047Z,999.90
2018-06-09T15:23:22.474Z,999.90
2018-06-09T15:25:49.935Z,999.90
2018-06-09T15:28:17.414Z,999.90
2018-06-09T15:30:45.101Z,999.90
2018-06-09T15:33:12.542Z,999.90
2018-06-09T15:35:40.102Z,999.90
2018-06-09T15:38:07.521Z,999.90
2018-06-09T15:40:34.967Z,999.90
2018-06-09T15:43:02.415Z,999.90
2018-06-09T15:45:29.872Z,999.90
2018-06-09T15:47:57.650Z,999.90
2018-06-09T15:50:25.097Z,999.90
2018-06-09T15:52:52.538Z,999.90
2018-06-09T15:55:20.012Z,999.90
2018-06-09T15:57:47.462Z,999.90
2018-06-09T16:00:14.918Z,999.90
2018-06-09T16:02:45.531Z,999.90
2018-06-09T16:05:14.258Z,999.90
2018-06-09T16:07:45.556Z,999.90
2018-06-09T16:10:13.073Z,999.90
2018-06-09T16:12:40.546Z,999.90
2018-06-09T16:15:07.995Z,999.90
2018-06-09T16:17:35.491Z,999.90
2018-06-09T16:20:03.238Z,999.90
2018-06-09T16:22:30.719Z,999.90
2018-06-09T16:24:58.191Z,999.90
2018-06-09T16:27:25.702Z,999.90
2018-06-09T16:29:53.138Z,999.90
2018-06-09T16:32:20.716Z,999.90
2018-06-09T16:34:48.164Z,999.90
2018-06-09T16:37:15.650Z,999.90
2018-06-09T16:39:43.193Z,999.90
2018-06-09T16:42:10.672Z,999.90
2018-06-09T16:44:38.126Z,999.90
2018-06-09T16:47:05.599Z,999.90
2018-06-09T16:49:33.058Z,999.90
2018-06-09T16:52:00.536Z,999.90
2018-06-09T16:54:27.986Z,999.90
2018-06-09T16:56:55.745Z,999.90
2018-06-09T16:59:23.176Z,999.90
2018-06-09T17:01:50.967Z,999.90
2018-06-09T17:04:18.430Z,999.90
2018-06-09T17:06:45.934Z,999.30
2018-06-09T17:09:13.403Z,999.90
2018-06-09T17:11:40.899Z,999.90
2018-06-09T17:14:08.358Z,990.27
2018-06-09T17:16:35.859Z,999.90
2018-06-09T17:19:03.335Z,995.08
2018-06-09T17:21:31.118Z,999.90
2018-06-09T17:23:58.571Z,995.30
2018-06-09T17:26:27.360Z,992.53
2018-06-09T17:28:54.922Z,999.90
2018-06-09T17:31:22.378Z,991.65
2018-06-09T17:33:49.851Z,987.57
2018-06-09T17:36:17.275Z,999.90
2018-06-09T17:38:44.729Z,977.50
2018-06-09T17:41:12.192Z,968.70
2018-06-09T17:43:39.668Z,997.78
2018-06-09T17:46:07.107Z,976.65
2018-06-09T17:48:34.563Z,975.77
2018-06-09T17:51:02.101Z,994.00
2018-06-09T17:53:29.507Z,971.95
2018-06-09T17:55:56.946Z,959.05
2018-06-09T17:58:24.430Z,989.95
2018-06-09T18:00:51.847Z,945.65
2018-06-09T18:03:19.291Z,953.22
2018-06-09T18:05:46.870Z,973.60
2018-06-09T18:08:14.314Z,913.72
2018-06-09T18:10:41.763Z,928.75
2018-06-09T18:13:09.205Z,934.30
2018-06-09T18:15:36.655Z,935.65
2018-06-09T18:18:04.123Z,930.55
2018-06-09T18:20:31.540Z,917.17
2018-06-09T18:22:59.092Z,911.90
2018-06-09T18:25:26.504Z,894.97
2018-06-09T18:27:53.930Z,912.75
2018-06-09T18:30:21.395Z,893.15
2018-06-09T18:32:48.818Z,878.10
2018-06-09T18:35:16.274Z,893.73
2018-06-09T18:37:43.716Z,898.90
2018-06-09T18:40:11.166Z,870.75
2018-06-09T18:42:38.619Z,895.10
2018-06-09T18:45:06.059Z,883.62
2018-06-09T18:47:33.494Z,861.90
2018-06-09T18:50:00.934Z,863.87
2018-06-09T18:52:28.376Z,861.60
2018-06-09T18:54:55.842Z,843.62
2018-06-09T18:57:23.262Z,857.13
2018-06-09T18:59:50.719Z,845.35
2018-06-09T19:02:18.160Z,838.92
2018-06-09T19:04:45.625Z,843.28
2018-06-09T19:07:13.070Z,807.20
2018-06-09T19:09:45.479Z,836.65
2018-06-09T19:12:13.246Z,835.17
2018-06-09T19:14:40.701Z,837.42
2018-06-09T19:17:08.134Z,821.15
2018-06-09T19:19:35.598Z,826.77
2018-06-09T19:22:03.103Z,811.90
2018-06-09T19:24:30.514Z,841.25
2018-06-09T19:26:57.959Z,841.00
2018-06-09T19:29:25.415Z,857.02
2018-06-09T19:31:52.850Z,829.08
2018-06-09T19:34:20.307Z,866.95
2018-06-09T19:36:48.344Z,848.25
2018-06-09T19:39:15.788Z,854.15
2018-06-09T19:41:43.251Z,831.50
2018-06-09T19:44:10.686Z,795.80
2018-06-09T19:46:38.133Z,855.00
2018-06-09T19:49:05.555Z,812.85
2018-06-09T19:51:33.014Z,817.50
2018-06-09T19:54:00.463Z,794.28
2018-06-09T19:56:27.914Z,803.30
2018-06-09T19:58:55.353Z,786.15
2018-06-09T20:01:22.810Z,777.52
2018-06-09T20:03:50.248Z,787.42
2018-06-09T20:06:17.761Z,729.70
2018-06-09T20:08:45.222Z,759.80
2018-06-09T20:11:12.683Z,774.00
2018-06-09T20:13:40.143Z,756.63
2018-06-09T20:16:07.683Z,770.50
2018-06-09T20:18:35.110Z,746.33
2018-06-09T20:21:02.567Z,732.60
2018-06-09T20:23:29.999Z,769.62
2018-06-09T20:25:57.551Z,751.55
2018-06-09T20:28:24.986Z,736.42
2018-06-09T20:30:52.509Z,780.15
2018-06-09T20:33:19.958Z,720.73
2018-06-09T20:35:47.427Z,770.83
2018-06-09T20:38:14.874Z,737.70
2018-06-09T20:40:42.590Z,741.35
2018-06-09T20:43:10.668Z,770.62
2018-06-09T20:45:38.118Z,750.27
2018-06-09T20:48:05.574Z,728.23
2018-06-09T20:50:33.022Z,723.25
2018-06-09T20:53:00.503Z,682.10
2018-06-09T20:55:27.986Z,688.10
2018-06-09T20:57:55.450Z,664.83
2018-06-09T21:00:22.893Z,643.17
2018-06-09T21:02:50.357Z,655.15
2018-06-09T21:05:17.802Z,654.15
2018-06-09T21:07:45.275Z,618.92
2018-06-09T21:10:12.746Z,614.63
2018-06-09T21:12:40.218Z,611.63
2018-06-09T21:15:07.682Z,616.85
2018-06-09T21:17:35.155Z,610.10
2018-06-09T21:20:02.652Z,735.10
2018-06-09T21:35:06.226Z,517.15
2018-06-09T21:40:13.100Z,410.90
2018-06-09T21:42:48.699Z,399.65
2018-06-09T21:45:21.754Z,431.32
2018-06-09T21:47:49.233Z,432.32
2018-06-09T21:50:16.662Z,438.93
2018-06-09T21:52:44.145Z,444.17
2018-06-09T21:55:11.665Z,443.33
2018-06-09T21:57:39.443Z,450.35
2018-06-09T22:00:07.429Z,436.45
2018-06-09T22:02:35.051Z,430.48
2018-06-09T22:05:02.510Z,438.55
2018-06-09T22:07:30.332Z,433.80
2018-06-09T22:09:57.818Z,431.87
2018-06-09T22:12:25.279Z,437.70
2018-06-09T22:14:52.798Z,451.05
2018-06-09T22:17:20.570Z,453.40
2018-06-09T22:19:48.027Z,469.67
2018-06-09T22:22:15.458Z,469.85
2018-06-09T22:24:42.906Z,464.80
2018-06-09T22:27:10.651Z,441.12
2018-06-09T22:29:38.110Z,433.47
2018-06-09T22:32:05.557Z,425.38
2018-06-09T22:34:32.999Z,426.82
2018-06-09T22:37:00.463Z,456.40
2018-06-09T22:39:27.924Z,434.43
2018-06-09T22:41:55.383Z,430.63
2018-06-09T22:44:23.080Z,424.52
2018-06-09T22:46:50.542Z,403.73
2018-06-09T22:49:18.040Z,419.70
2018-06-09T22:51:45.509Z,432.27
2018-06-09T22:54:12.985Z,394.57
2018-06-09T22:56:40.433Z,405.48
2018-06-09T22:59:07.909Z,411.17
2018-06-09T23:01:35.363Z,435.87
2018-06-09T23:04:02.846Z,431.40
2018-06-09T23:06:30.367Z,428.30
2018-06-09T23:08:57.850Z,441.10
2018-06-09T23:11:25.269Z,420.73
2018-06-09T23:13:52.779Z,415.58
2018-06-09T23:16:20.230Z,402.70
2018-06-09T23:18:47.682Z,401.05
2018-06-09T23:21:15.149Z,429.25
2018-06-09T23:23:42.894Z,420.25
2018-06-09T23:26:10.339Z,397.65
2018-06-09T23:28:37.766Z,411.65
2018-06-09T23:31:05.227Z,407.88
2018-06-09T23:33:32.667Z,393.35
2018-06-09T23:36:00.121Z,401.20
2018-06-09T23:38:27.559Z,387.77
2018-06-09T23:40:55.029Z,400.85
2018-06-09T23:43:22.756Z,381.73
2018-06-09T23:45:50.539Z,426.67
2018-06-09T23:48:18.281Z,380.55
2018-06-09T23:50:45.750Z,385.60
2018-06-09T23:53:13.183Z,397.05
2018-06-09T23:55:40.646Z,382.05
2018-06-09T23:58:08.075Z,430.20
